Weather reports worldwide

Advertisment
South Newington, United Kingdom (99166): temperature & dewpoint: 06.12.2019 16:00:00 - 12.12.2019 16:00:00 (GMT)South Newington, United Kingdom (99166): temperature -20cm & temperature -100cm: 06.12.2019 16:00:00 - 12.12.2019 16:00:00 (GMT)South Newington, United Kingdom (99166): precipitation: 06.12.2019 16:00:00 - 12.12.2019 16:00:00 (GMT)
Date & Time tt [°C] td [°C] tt -20cm [°C] tt -100cm [°C] rr [mm]
12.12.2019 16:00:00 8,2 7,2 - - -
12.12.2019 15:00:00 8,3 7,6 - - 1,0
12.12.2019 14:00:00 7,9 7,5 - - 1,6
12.12.2019 13:00:00 7,5 7,1 - - 1,6
12.12.2019 12:00:00 6,7 6,4 - - 3,2
12.12.2019 11:00:00 5,5 5,2 - - 0,2
12.12.2019 10:00:00 4,5 4,2 - - 1,6
12.12.2019 09:00:00 3,5 3,0 4,9 9,0 1,4
12.12.2019 08:00:00 2,3 1,6 - - 0,2
12.12.2019 07:00:00 2,0 0,9 - - 0,0
12.12.2019 06:00:00 2,0 0,7 - - 0,2
12.12.2019 05:00:00 2,1 0,9 - - 0,0
12.12.2019 04:00:00 1,6 0,8 - - 0,0
12.12.2019 03:00:00 1,4 0,9 - - 0,0
12.12.2019 02:00:00 0,0 -0,1 - - 0,0
12.12.2019 01:00:00 -1,3 -1,4 - - 0,0
12.12.2019 00:00:00 -2,0 -2,2 - - 0,0
11.12.2019 23:00:00 -1,7 -1,9 - - 0,0
11.12.2019 22:00:00 -1,7 -1,9 - - 0,0
11.12.2019 21:00:00 -1,3 -1,7 - - 0,0
11.12.2019 20:00:00 0,2 0,0 - - 0,0
11.12.2019 19:00:00 0,4 0,1 - - 0,0
11.12.2019 18:00:00 0,7 0,3 - - 0,0
11.12.2019 17:00:00 2,1 0,9 - - 0,0
11.12.2019 16:00:00 4,5 2,1 - - 0,0
11.12.2019 15:00:00 6,1 3,4 - - 0,0
11.12.2019 14:00:00 6,7 3,7 - - 0,0
11.12.2019 13:00:00 6,6 3,2 - - 0,0
11.12.2019 12:00:00 6,9 3,0 - - 0,0
11.12.2019 11:00:00 6,0 3,2 - - 0,0
11.12.2019 10:00:00 3,9 2,4 - - 0,0
11.12.2019 09:00:00 3,5 2,4 5,7 9,2 0,0
11.12.2019 08:00:00 2,8 2,0 - - 0,0
11.12.2019 07:00:00 2,8 2,3 - - 0,0
11.12.2019 06:00:00 1,5 1,3 - - 0,0
11.12.2019 05:00:00 1,0 0,6 - - 0,0
11.12.2019 04:00:00 1,5 0,5 - - 0,0
11.12.2019 03:00:00 3,4 1,5 - - 0,0
11.12.2019 02:00:00 4,4 1,7 - - 0,0
11.12.2019 01:00:00 4,7 2,0 - - 0,0
11.12.2019 00:00:00 5,1 2,5 - - 0,0
10.12.2019 23:00:00 5,8 3,3 - - 0,0
10.12.2019 22:00:00 6,5 2,9 - - 0,0
10.12.2019 21:00:00 7,5 5,1 - - 0,2
10.12.2019 20:00:00 8,5 6,2 - - 0,6
10.12.2019 19:00:00 11,8 10,1 - - 0,8
10.12.2019 18:00:00 11,8 10,8 - - 1,4
10.12.2019 17:00:00 11,1 10,0 - - 0,2
10.12.2019 16:00:00 10,9 9,5 - - 0,0
10.12.2019 15:00:00 10,7 9,3 - - 0,0
10.12.2019 14:00:00 9,9 8,9 - - 0,2
10.12.2019 13:00:00 9,5 8,3 - - 0,2
10.12.2019 12:00:00 9,0 8,0 - - 0,6
10.12.2019 11:00:00 9,0 7,4 - - 0,4
10.12.2019 10:00:00 8,3 6,6 - - 0,0
10.12.2019 09:00:00 7,5 5,6 5,4 9,2 0,0
10.12.2019 08:00:00 5,3 4,1 - - 0,0
10.12.2019 07:00:00 3,8 2,6 - - 0,0
10.12.2019 06:00:00 3,2 2,1 - - 0,2
10.12.2019 05:00:00 0,3 0,2 - - 0,0
10.12.2019 04:00:00 -0,7 -0,7 - - 0,0
10.12.2019 03:00:00 -2,8 -3,0 - - 0,0
10.12.2019 02:00:00 -2,6 -2,9 - - 0,0
10.12.2019 01:00:00 -2,6 -2,9 - - 0,0
10.12.2019 00:00:00 -2,5 -2,8 - - 0,0
09.12.2019 23:00:00 -2,0 -2,2 - - 0,0
09.12.2019 22:00:00 -1,6 -1,9 - - 0,0
09.12.2019 21:00:00 -1,1 -1,5 - - 0,0
09.12.2019 20:00:00 -0,9 -1,4 - - 0,0
09.12.2019 19:00:00 -0,3 -1,2 - - 0,0
09.12.2019 18:00:00 1,0 -0,6 - - 0,0
09.12.2019 17:00:00 3,9 0,1 - - 0,0
09.12.2019 16:00:00 4,8 0,4 - - 0,0
09.12.2019 15:00:00 6,9 0,9 - - 0,0
09.12.2019 14:00:00 8,4 1,1 - - 0,0
09.12.2019 13:00:00 8,7 1,3 - - 0,0
09.12.2019 12:00:00 8,4 1,1 - - 0,0
09.12.2019 11:00:00 8,6 3,0 - - 0,0
09.12.2019 10:00:00 7,4 3,2 - - 0,0
09.12.2019 09:00:00 6,5 2,9 6,5 9,2 0,0
09.12.2019 08:00:00 7,0 2,8 - - 0,0
09.12.2019 07:00:00 7,1 3,3 - - 0,0
09.12.2019 06:00:00 7,8 3,3 - - 0,0
09.12.2019 05:00:00 7,4 4,9 - - 0,0
09.12.2019 04:00:00 7,3 5,3 - - 0,2
09.12.2019 03:00:00 6,3 4,4 - - 0,0
09.12.2019 02:00:00 6,2 3,7 - - 0,0
09.12.2019 01:00:00 5,3 3,8 - - 0,2
09.12.2019 00:00:00 4,5 3,5 - - 0,2
08.12.2019 23:00:00 4,9 3,4 - - 0,0
08.12.2019 22:00:00 5,4 3,1 - - 0,0
08.12.2019 21:00:00 5,6 3,1 - - 0,0
08.12.2019 20:00:00 5,7 2,8 - - 0,0
08.12.2019 19:00:00 6,0 2,4 - - 0,0
08.12.2019 18:00:00 5,4 2,5 - - 0,0
08.12.2019 17:00:00 6,3 2,8 - - 0,2
08.12.2019 16:00:00 6,3 4,3 - - 0,2
08.12.2019 15:00:00 7,4 3,0 - - 0,0
08.12.2019 14:00:00 8,7 3,0 - - 0,0
08.12.2019 13:00:00 9,3 2,6 - - 0,0
08.12.2019 12:00:00 9,3 4,0 - - 0,0
08.12.2019 11:00:00 9,5 4,5 - - 0,0
08.12.2019 10:00:00 8,6 3,9 - - 0,0
08.12.2019 09:00:00 7,8 4,4 6,9 9,2 0,0
08.12.2019 08:00:00 8,3 5,3 - - 0,0
08.12.2019 07:00:00 9,3 5,8 - - 0,0
08.12.2019 06:00:00 9,5 6,1 - - 0,0
08.12.2019 05:00:00 10,5 8,0 - - 0,0
08.12.2019 04:00:00 11,2 10,2 - - 0,2
08.12.2019 03:00:00 10,7 9,9 - - 0,0
08.12.2019 02:00:00 10,2 9,1 - - 1,4
08.12.2019 01:00:00 9,6 8,5 - - 1,4
08.12.2019 00:00:00 10,1 7,8 - - 0,0
07.12.2019 23:00:00 9,6 7,9 - - 0,0
07.12.2019 22:00:00 9,3 7,8 - - 0,0
07.12.2019 21:00:00 8,9 7,0 - - 0,0
07.12.2019 20:00:00 8,8 6,8 - - 0,0
07.12.2019 19:00:00 8,8 6,8 - - 0,0
07.12.2019 18:00:00 9,1 6,5 - - 0,0
07.12.2019 17:00:00 9,2 6,5 - - 0,0
07.12.2019 16:00:00 9,3 6,7 - - 0,0
07.12.2019 15:00:00 9,6 6,5 - - 0,0
07.12.2019 14:00:00 9,8 6,0 - - 0,0
07.12.2019 13:00:00 10,0 5,9 - - 0,0
07.12.2019 12:00:00 10,4 5,4 - - 0,0
07.12.2019 11:00:00 9,1 5,9 - - 0,0
07.12.2019 10:00:00 8,4 5,0 - - 0,0
07.12.2019 09:00:00 8,2 5,2 6,0 9,4 0,0
07.12.2019 08:00:00 8,0 5,3 - - 0,0
07.12.2019 07:00:00 7,5 5,2 - - 0,0
07.12.2019 06:00:00 7,8 5,5 - - 0,0
07.12.2019 05:00:00 7,1 4,8 - - 0,0
07.12.2019 04:00:00 6,9 4,8 - - 0,0
07.12.2019 03:00:00 8,0 5,3 - - 0,0
07.12.2019 02:00:00 8,3 5,3 - - 0,0
07.12.2019 01:00:00 8,5 5,4 - - 0,0
07.12.2019 00:00:00 8,5 5,5 - - 0,0
06.12.2019 23:00:00 7,7 5,4 - - 0,0
06.12.2019 22:00:00 4,5 3,4 - - 0,0
06.12.2019 21:00:00 7,3 4,8 - - 0,0
06.12.2019 20:00:00 9,0 5,6 - - 0,0
06.12.2019 19:00:00 9,4 5,9 - - 0,0
06.12.2019 18:00:00 9,4 6,5 - - 0,0
06.12.2019 17:00:00 9,5 7,0 - - 0,0
06.12.2019 16:00:00 9,6 7,7 - - 0,6

tt = temperature
td = dewpoint
tt -20cm = temperature -20cm
tt -100cm = temperature -100cm
rr = precipitation

Next stations